createdAt,value
2019-01-12T00:00:07.390Z,71.28
2019-01-12T00:02:34.795Z,71.53
2019-01-12T00:05:02.202Z,71.76
2019-01-12T00:07:29.600Z,71.87
2019-01-12T00:09:57.015Z,71.98
2019-01-12T00:12:24.426Z,72.18
2019-01-12T00:14:51.852Z,72.08
2019-01-12T00:17:19.252Z,72.27
2019-01-12T00:19:46.918Z,72.24
2019-01-12T00:22:14.316Z,72.76
2019-01-12T00:24:41.731Z,73.18
2019-01-12T00:27:09.143Z,73.50
2019-01-12T00:29:36.559Z,73.48
2019-01-12T00:32:03.946Z,73.20
2019-01-12T00:34:31.378Z,73.07
2019-01-12T00:36:58.979Z,73.11
2019-01-12T00:39:26.426Z,73.20
2019-01-12T00:41:53.867Z,73.40
2019-01-12T00:44:21.268Z,73.21
2019-01-12T00:46:48.686Z,72.82
2019-01-12T00:49:16.663Z,73.01
2019-01-12T00:51:44.106Z,73.30
2019-01-12T00:54:11.524Z,73.39
2019-01-12T00:56:38.937Z,73.45
2019-01-12T00:59:06.413Z,73.39
2019-01-12T01:01:33.854Z,73.20
2019-01-12T01:04:01.285Z,73.34
2019-01-12T01:06:28.682Z,73.38
2019-01-12T01:08:56.098Z,73.48
2019-01-12T01:11:23.512Z,73.50
2019-01-12T01:13:50.911Z,73.26
2019-01-12T01:16:18.371Z,72.94
2019-01-12T01:18:45.764Z,72.70
2019-01-12T01:21:13.190Z,72.92
2019-01-12T01:23:40.636Z,72.75
2019-01-12T01:26:08.042Z,72.78
2019-01-12T01:28:35.521Z,73.10
2019-01-12T01:31:03.005Z,73.39
2019-01-12T01:33:30.425Z,73.59
2019-01-12T01:35:57.818Z,73.36
2019-01-12T01:38:25.223Z,73.17
2019-01-12T01:40:52.673Z,72.92
2019-01-12T01:43:20.080Z,73.02
2019-01-12T01:45:48.266Z,73.03
2019-01-12T01:48:15.714Z,72.79
2019-01-12T01:50:43.127Z,72.73
2019-01-12T01:53:10.540Z,72.76
2019-01-12T01:55:37.957Z,72.61
2019-01-12T01:58:05.461Z,72.64
2019-01-12T02:00:32.872Z,72.70
2019-01-12T02:03:00.353Z,72.86
2019-01-12T02:05:27.782Z,72.68
2019-01-12T02:07:55.168Z,72.52
2019-01-12T02:10:22.615Z,72.56
2019-01-12T02:12:50.015Z,72.32
2019-01-12T02:15:17.423Z,72.42
2019-01-12T02:17:44.826Z,72.38
2019-01-12T02:20:12.314Z,72.32
2019-01-12T02:22:39.730Z,72.13
2019-01-12T02:25:07.187Z,72.19
2019-01-12T02:27:34.600Z,72.02
2019-01-12T02:30:02.008Z,72.11
2019-01-12T02:32:29.423Z,72.58
2019-01-12T02:34:56.815Z,72.60
2019-01-12T02:37:24.228Z,72.47
2019-01-12T02:39:51.658Z,72.35
2019-01-12T02:42:19.058Z,72.45
2019-01-12T02:44:46.957Z,72.73
2019-01-12T02:47:14.373Z,72.71
2019-01-12T02:49:41.831Z,73.13
2019-01-12T02:52:09.267Z,72.87
2019-01-12T02:54:36.701Z,72.98
2019-01-12T02:57:04.082Z,72.92
2019-01-12T02:59:31.767Z,72.70
2019-01-12T03:01:59.191Z,72.87
2019-01-12T03:04:26.646Z,72.86
2019-01-12T03:06:54.032Z,72.76
2019-01-12T03:09:21.501Z,72.78
2019-01-12T03:11:48.927Z,73.19
2019-01-12T03:14:16.315Z,73.41
2019-01-12T03:16:43.727Z,73.67
2019-01-12T03:19:11.115Z,74.22
2019-01-12T03:21:38.516Z,74.91
2019-01-12T03:24:05.926Z,75.41
2019-01-12T03:26:33.336Z,75.57
2019-01-12T03:29:01.113Z,75.40
2019-01-12T03:31:28.538Z,75.28
2019-01-12T03:33:55.968Z,75.22
2019-01-12T03:36:23.378Z,74.77
2019-01-12T03:38:50.788Z,75.03
2019-01-12T03:41:18.192Z,75.17
2019-01-12T03:43:45.717Z,74.65
2019-01-12T03:46:13.171Z,74.17
2019-01-12T03:48:40.605Z,73.82
2019-01-12T03:51:08.068Z,73.79
2019-01-12T03:53:35.473Z,73.57
2019-01-12T03:56:02.877Z,73.44
2019-01-12T03:58:30.311Z,73.39
2019-01-12T04:00:57.744Z,73.34
2019-01-12T04:03:25.147Z,73.36
2019-01-12T04:05:52.559Z,73.51
2019-01-12T04:08:19.974Z,73.47
2019-01-12T04:10:47.537Z,73.42
2019-01-12T04:13:14.930Z,73.57
2019-01-12T04:15:42.480Z,73.32
2019-01-12T04:18:09.879Z,73.64
2019-01-12T04:20:37.354Z,73.48
2019-01-12T04:23:04.768Z,73.31
2019-01-12T04:25:33.869Z,73.29
2019-01-12T04:27:59.675Z,73.06
2019-01-12T04:30:27.085Z,72.72
2019-01-12T04:32:54.481Z,73.00
2019-01-12T04:35:21.895Z,73.16
2019-01-12T04:37:49.291Z,72.98
2019-01-12T04:40:16.698Z,72.76
2019-01-12T04:42:44.101Z,72.63
2019-01-12T04:45:11.494Z,72.50
2019-01-12T04:47:38.940Z,72.46
2019-01-12T04:50:06.523Z,72.81
2019-01-12T04:52:33.946Z,72.90
2019-01-12T04:55:01.341Z,72.64
2019-01-12T04:57:28.730Z,72.40
2019-01-12T04:59:56.384Z,72.33
2019-01-12T05:02:23.797Z,72.39
2019-01-12T05:04:51.797Z,72.64
2019-01-12T05:07:19.196Z,72.39
2019-01-12T05:09:46.652Z,72.22
2019-01-12T05:12:14.069Z,72.59
2019-01-12T05:14:41.503Z,72.97
2019-01-12T05:17:09.004Z,73.08
2019-01-12T05:19:36.413Z,73.09
2019-01-12T05:22:03.997Z,73.27
2019-01-12T05:24:31.561Z,73.38
2019-01-12T05:26:58.974Z,73.75
2019-01-12T05:29:26.444Z,73.86
2019-01-12T05:31:53.880Z,73.76
2019-01-12T05:34:21.303Z,73.48
2019-01-12T05:36:48.716Z,73.23
2019-01-12T05:39:16.135Z,72.99
2019-01-12T05:41:44.642Z,72.64
2019-01-12T05:44:12.034Z,72.76
2019-01-12T05:46:39.443Z,72.59
2019-01-12T05:49:06.849Z,72.56
2019-01-12T05:51:34.261Z,72.60
2019-01-12T05:54:01.674Z,72.32
2019-01-12T05:56:29.119Z,72.34
2019-01-12T05:58:56.584Z,71.92
2019-01-12T06:03:50.800Z,72.30
2019-01-12T06:06:18.198Z,72.16
2019-01-12T06:08:45.621Z,72.12
2019-01-12T06:11:13.045Z,72.34
2019-01-12T06:13:40.480Z,72.44
2019-01-12T06:16:07.920Z,72.13
2019-01-12T06:18:35.353Z,71.86
2019-01-12T06:21:02.778Z,71.76
2019-01-12T06:23:30.212Z,71.64
2019-01-12T06:26:03.669Z,71.55
2019-01-12T06:28:25.868Z,71.68
2019-01-12T06:30:53.280Z,71.61
2019-01-12T06:33:20.672Z,71.35
2019-01-12T06:35:48.073Z,71.19
2019-01-12T06:38:15.492Z,71.03
2019-01-12T06:40:42.932Z,71.07
2019-01-12T06:43:10.347Z,71.08
2019-01-12T06:45:37.772Z,70.92
2019-01-12T06:48:05.180Z,70.86
2019-01-12T06:50:32.579Z,70.92
2019-01-12T06:52:59.981Z,70.89
2019-01-12T06:55:27.555Z,70.89
2019-01-12T06:57:54.965Z,70.88
2019-01-12T07:00:22.363Z,70.94
2019-01-12T07:02:49.779Z,70.80
2019-01-12T07:05:17.175Z,70.47
2019-01-12T07:07:44.579Z,70.57
2019-01-12T07:10:12.008Z,70.33
2019-01-12T07:12:39.410Z,70.20
2019-01-12T07:15:06.880Z,70.33
2019-01-12T07:17:34.319Z,70.15
2019-01-12T07:20:01.719Z,70.06
2019-01-12T07:22:29.145Z,69.94
2019-01-12T07:24:56.578Z,70.01
2019-01-12T07:27:23.994Z,69.87
2019-01-12T07:29:51.386Z,69.87
2019-01-12T07:32:18.820Z,69.85
2019-01-12T07:34:46.250Z,69.84
2019-01-12T07:37:13.664Z,69.95
2019-01-12T07:39:41.060Z,70.07
2019-01-12T07:42:08.474Z,70.00
2019-01-12T07:44:35.915Z,69.89
2019-01-12T07:47:03.682Z,69.88
2019-01-12T07:49:31.242Z,69.81
2019-01-12T07:51:58.651Z,69.84
2019-01-12T07:54:26.051Z,69.75
2019-01-12T07:56:53.474Z,69.58
2019-01-12T07:59:20.947Z,69.59
2019-01-12T08:01:48.343Z,69.75
2019-01-12T08:04:15.750Z,69.72
2019-01-12T08:06:43.983Z,69.49
2019-01-12T08:09:11.426Z,69.61
2019-01-12T08:11:39.134Z,69.98
2019-01-12T08:14:06.525Z,70.37
2019-01-12T08:16:33.949Z,70.67
2019-01-12T08:19:01.378Z,70.51
2019-01-12T08:21:28.770Z,70.26
2019-01-12T08:23:56.246Z,69.98
2019-01-12T08:26:23.643Z,69.95
2019-01-12T08:28:51.061Z,69.82
2019-01-12T08:31:18.525Z,71.56
2019-01-12T08:33:45.921Z,69.89
2019-01-12T08:36:13.886Z,69.38
2019-01-12T08:38:41.323Z,69.18
2019-01-12T08:41:08.747Z,69.42
2019-01-12T08:43:36.164Z,69.45
2019-01-12T08:46:03.783Z,69.40
2019-01-12T08:48:31.221Z,69.15
2019-01-12T08:50:58.677Z,69.10
2019-01-12T08:53:26.153Z,69.12
2019-01-12T08:55:53.611Z,69.34
2019-01-12T08:58:21.019Z,69.17
2019-01-12T09:00:48.438Z,69.30
2019-01-12T09:03:15.884Z,69.03
2019-01-12T09:05:43.315Z,68.52
2019-01-12T09:08:10.714Z,68.10
2019-01-12T09:10:38.169Z,67.59
2019-01-12T09:13:05.593Z,67.39
2019-01-12T09:15:33.076Z,66.54
2019-01-12T09:18:00.572Z,66.00
2019-01-12T09:20:27.973Z,65.60
2019-01-12T09:22:55.367Z,65.29
2019-01-12T09:25:22.804Z,65.26
2019-01-12T09:27:50.218Z,65.17
2019-01-12T09:30:17.630Z,65.25
2019-01-12T09:32:45.055Z,65.81
2019-01-12T09:35:12.452Z,66.14
2019-01-12T09:37:39.898Z,66.94
2019-01-12T09:40:07.298Z,66.82
2019-01-12T09:42:34.721Z,66.97
2019-01-12T09:45:02.153Z,66.72
2019-01-12T09:47:29.563Z,66.58
2019-01-12T09:49:57.010Z,66.50
2019-01-12T09:52:24.428Z,66.38
2019-01-12T09:54:51.820Z,65.72
2019-01-12T09:57:19.278Z,65.44
2019-01-12T09:59:46.701Z,65.62
2019-01-12T10:02:14.134Z,65.25
2019-01-12T10:04:41.610Z,64.62
2019-01-12T10:07:09.015Z,62.14
2019-01-12T10:09:36.451Z,60.31
2019-01-12T10:12:03.894Z,60.50
2019-01-12T10:14:31.313Z,61.24
2019-01-12T10:16:58.712Z,60.09
2019-01-12T10:19:25.660Z,58.58
2019-01-12T10:21:53.068Z,58.55
2019-01-12T10:24:20.498Z,59.25
2019-01-12T10:26:48.298Z,59.91
2019-01-12T10:29:15.743Z,61.11
2019-01-12T10:31:43.193Z,61.38
2019-01-12T10:34:10.681Z,61.09
2019-01-12T10:36:38.100Z,60.37
2019-01-12T10:39:05.628Z,60.38
2019-01-12T10:41:33.052Z,60.10
2019-01-12T10:44:00.450Z,59.29
2019-01-12T10:46:27.890Z,59.37
2019-01-12T10:48:55.374Z,59.88
2019-01-12T10:51:22.767Z,60.25
2019-01-12T10:53:50.197Z,60.04
2019-01-12T10:56:17.627Z,59.35
2019-01-12T10:58:45.067Z,59.07
2019-01-12T11:01:12.524Z,58.40
2019-01-12T11:03:39.934Z,57.21
2019-01-12T11:06:06.922Z,56.44
2019-01-12T11:08:34.357Z,55.81
2019-01-12T11:11:01.750Z,55.86
2019-01-12T11:13:29.194Z,56.29
2019-01-12T11:15:56.726Z,57.46
2019-01-12T11:18:24.127Z,58.04
2019-01-12T11:20:51.786Z,58.11
2019-01-12T11:23:19.207Z,57.97
2019-01-12T11:25:46.679Z,57.98
2019-01-12T11:28:14.091Z,58.75
2019-01-12T11:30:41.491Z,59.07
2019-01-12T11:33:08.939Z,58.54
2019-01-12T11:35:37.875Z,58.08
2019-01-12T11:38:03.873Z,57.40
2019-01-12T11:40:31.287Z,57.05
2019-01-12T11:42:59.374Z,56.62
2019-01-12T11:45:26.815Z,56.38
2019-01-12T11:47:54.219Z,56.42
2019-01-12T11:50:22.239Z,57.11
2019-01-12T11:52:49.639Z,57.49
2019-01-12T11:55:17.070Z,57.80
2019-01-12T11:57:44.840Z,58.83
2019-01-12T12:00:22.438Z,59.48
2019-01-12T12:02:50.301Z,59.44
2019-01-12T12:05:18.058Z,59.49
2019-01-12T12:07:45.520Z,59.44
2019-01-12T12:10:12.926Z,59.26
2019-01-12T12:12:40.344Z,59.06
2019-01-12T12:15:08.843Z,58.99
2019-01-12T12:17:36.236Z,59.08
2019-01-12T12:20:03.662Z,59.26
2019-01-12T12:22:31.385Z,59.17
2019-01-12T12:24:59.526Z,59.45
2019-01-12T12:27:27.687Z,59.96
2019-01-12T12:29:55.185Z,59.97
2019-01-12T12:32:22.649Z,60.08
2019-01-12T12:34:50.046Z,60.14
2019-01-12T12:37:18.281Z,59.93
2019-01-12T12:39:46.627Z,59.97
2019-01-12T12:42:14.139Z,60.50
2019-01-12T12:44:41.568Z,60.97
2019-01-12T12:47:09.966Z,60.54
2019-01-12T12:49:37.385Z,60.47
2019-01-12T12:52:04.860Z,60.85
2019-01-12T12:54:32.314Z,60.04
2019-01-12T12:56:59.728Z,59.87
2019-01-12T12:59:27.153Z,60.14
2019-01-12T13:01:54.650Z,59.94
2019-01-12T13:04:22.059Z,59.51
2019-01-12T13:06:49.506Z,59.31
2019-01-12T13:09:17.044Z,59.22
2019-01-12T13:11:44.601Z,59.17
2019-01-12T13:14:12.096Z,59.02
2019-01-12T13:16:39.579Z,58.59
2019-01-12T13:19:07.027Z,58.46
2019-01-12T13:21:34.551Z,58.09
2019-01-12T13:24:02.053Z,58.05
2019-01-12T13:26:29.445Z,58.18
2019-01-12T13:28:56.397Z,58.21
2019-01-12T13:31:23.855Z,58.24
2019-01-12T13:33:51.528Z,58.70
2019-01-12T13:36:19.729Z,59.15
2019-01-12T13:38:47.144Z,59.03
2019-01-12T13:41:14.556Z,59.31
2019-01-12T13:43:41.966Z,59.73
2019-01-12T13:46:09.384Z,59.39
2019-01-12T13:48:36.805Z,59.35
2019-01-12T13:51:04.256Z,59.42
2019-01-12T13:53:31.690Z,58.99
2019-01-12T13:55:59.131Z,58.87
2019-01-12T13:58:26.575Z,58.52
2019-01-12T14:00:53.992Z,58.26
2019-01-12T14:03:21.416Z,58.33
2019-01-12T14:05:48.941Z,58.16
2019-01-12T14:08:16.388Z,58.26
2019-01-12T14:10:43.812Z,58.25
2019-01-12T14:13:11.278Z,58.51
2019-01-12T14:15:38.709Z,58.75
2019-01-12T14:18:06.098Z,58.66
2019-01-12T14:20:33.515Z,58.61
2019-01-12T14:23:01.000Z,58.83
2019-01-12T14:25:28.466Z,58.75
2019-01-12T14:27:56.934Z,58.69
2019-01-12T14:30:24.364Z,58.59
2019-01-12T14:32:51.781Z,58.71
2019-01-12T14:35:19.191Z,59.09
2019-01-12T14:37:46.809Z,59.50
2019-01-12T14:40:15.656Z,59.64
2019-01-12T14:42:43.626Z,60.07
2019-01-12T14:45:11.729Z,60.20
2019-01-12T14:47:40.093Z,60.50
2019-01-12T14:50:07.581Z,60.58
2019-01-12T14:52:34.996Z,60.55
2019-01-12T14:55:02.386Z,60.47
2019-01-12T14:57:29.799Z,60.52
2019-01-12T14:59:57.260Z,60.71
2019-01-12T15:02:24.653Z,60.74
2019-01-12T15:04:52.063Z,60.49
2019-01-12T15:07:19.471Z,60.70
2019-01-12T15:09:46.893Z,60.92
2019-01-12T15:12:14.308Z,61.27
2019-01-12T15:14:41.733Z,61.61
2019-01-12T15:17:09.574Z,61.54
2019-01-12T15:19:36.992Z,61.14
2019-01-12T15:22:04.405Z,60.86
2019-01-12T15:24:31.819Z,60.56
2019-01-12T15:26:59.216Z,60.51
2019-01-12T15:29:26.652Z,60.34
2019-01-12T15:31:54.070Z,60.40
2019-01-12T15:34:22.260Z,60.62
2019-01-12T15:36:49.843Z,60.49
2019-01-12T15:39:17.323Z,60.72
2019-01-12T15:41:44.802Z,60.58
2019-01-12T15:44:12.719Z,60.59
2019-01-12T15:46:40.153Z,60.55
2019-01-12T15:49:07.599Z,60.85
2019-01-12T15:51:35.055Z,61.36
2019-01-12T15:54:02.467Z,62.05
2019-01-12T15:56:29.879Z,62.59
2019-01-12T15:58:57.279Z,62.75
2019-01-12T16:01:24.694Z,62.66
2019-01-12T16:03:52.129Z,62.65
2019-01-12T16:06:19.521Z,62.66
2019-01-12T16:08:47.141Z,62.53
2019-01-12T16:11:14.567Z,62.62
2019-01-12T16:13:42.073Z,62.54
2019-01-12T16:16:09.589Z,62.56
2019-01-12T16:18:37.368Z,62.46
2019-01-12T16:21:04.781Z,62.59
2019-01-12T16:23:32.180Z,62.60
2019-01-12T16:25:59.601Z,62.54
2019-01-12T16:28:27.011Z,62.42
2019-01-12T16:30:54.423Z,62.40
2019-01-12T16:33:21.826Z,62.46
2019-01-12T16:35:49.222Z,62.59
2019-01-12T16:38:16.636Z,62.84
2019-01-12T16:40:44.518Z,62.93
2019-01-12T16:43:13.038Z,63.08
2019-01-12T16:45:40.496Z,63.16
2019-01-12T16:48:08.480Z,63.25
2019-01-12T16:50:35.878Z,63.54
2019-01-12T16:53:03.302Z,63.67
2019-01-12T16:55:30.708Z,63.90
2019-01-12T16:57:58.119Z,64.00
2019-01-12T17:00:25.541Z,63.71
2019-01-12T17:02:53.069Z,63.79
2019-01-12T17:05:20.541Z,64.04
2019-01-12T17:07:47.941Z,64.36
2019-01-12T17:10:15.366Z,64.49
2019-01-12T17:12:42.770Z,64.64
2019-01-12T17:15:10.201Z,64.83
2019-01-12T17:17:37.688Z,65.22
2019-01-12T17:20:05.210Z,65.42
2019-01-12T17:22:32.618Z,65.60
2019-01-12T17:25:00.109Z,65.58
2019-01-12T17:27:27.604Z,65.72
2019-01-12T17:29:54.989Z,65.71
2019-01-12T17:32:22.598Z,65.59
2019-01-12T17:34:49.992Z,65.38
2019-01-12T17:37:18.969Z,65.14
2019-01-12T17:39:45.004Z,64.98
2019-01-12T17:42:12.463Z,64.46
2019-01-12T17:44:39.871Z,63.88
2019-01-12T17:47:08.138Z,63.42
2019-01-12T17:49:35.646Z,62.83
2019-01-12T17:52:03.274Z,62.52
2019-01-12T17:54:30.917Z,62.19
2019-01-12T17:56:58.442Z,62.04
2019-01-12T17:59:25.869Z,61.78
2019-01-12T18:01:53.301Z,61.48
2019-01-12T18:04:20.766Z,61.11
2019-01-12T18:06:48.193Z,61.15
2019-01-12T18:09:15.583Z,61.36
2019-01-12T18:11:42.973Z,61.11
2019-01-12T18:14:10.373Z,60.81
2019-01-12T18:16:37.797Z,60.71
2019-01-12T18:19:05.234Z,60.65
2019-01-12T18:21:32.712Z,60.45
2019-01-12T18:24:00.214Z,60.40
2019-01-12T18:26:27.644Z,60.46
2019-01-12T18:28:55.105Z,60.23
2019-01-12T18:31:22.543Z,60.02
2019-01-12T18:33:49.938Z,59.43
2019-01-12T18:36:18.249Z,59.12
2019-01-12T18:38:45.812Z,59.64
2019-01-12T18:41:13.320Z,59.98
2019-01-12T18:43:40.704Z,59.89
2019-01-12T18:46:12.089Z,60.06
2019-01-12T18:48:35.637Z,60.47
2019-01-12T18:51:03.092Z,60.40
2019-01-12T18:53:30.606Z,59.90
2019-01-12T18:55:58.058Z,59.65
2019-01-12T18:58:25.443Z,59.30
2019-01-12T19:00:52.879Z,58.95
2019-01-12T19:03:20.319Z,58.93
2019-01-12T19:05:47.739Z,58.76
2019-01-12T19:08:15.155Z,58.86
2019-01-12T19:10:42.607Z,59.03
2019-01-12T19:13:10.065Z,59.31
2019-01-12T19:15:37.692Z,59.57
2019-01-12T19:18:05.320Z,59.77
2019-01-12T19:20:33.016Z,60.03
2019-01-12T19:23:00.568Z,60.00
2019-01-12T19:25:27.967Z,60.11
2019-01-12T19:27:55.389Z,60.22
2019-01-12T19:30:22.820Z,60.20
2019-01-12T19:32:50.267Z,60.14
2019-01-12T19:35:18.128Z,60.02
2019-01-12T19:37:45.632Z,60.03
2019-01-12T19:40:15.387Z,60.39
2019-01-12T19:42:42.799Z,60.25
2019-01-12T19:45:10.264Z,60.22
2019-01-12T19:47:38.176Z,60.23
2019-01-12T19:50:05.607Z,60.14
2019-01-12T19:52:33.004Z,60.12
2019-01-12T19:55:00.454Z,60.03
2019-01-12T19:57:28.003Z,60.04
2019-01-12T19:59:55.446Z,60.18
2019-01-12T20:02:23.018Z,60.14
2019-01-12T20:04:51.229Z,60.37
2019-01-12T20:07:18.760Z,60.25
2019-01-12T20:09:46.285Z,60.45
2019-01-12T20:12:13.873Z,60.36
2019-01-12T20:14:41.266Z,60.45
2019-01-12T20:17:08.680Z,60.43
2019-01-12T20:19:36.154Z,60.33
2019-01-12T20:22:03.584Z,60.09
2019-01-12T20:24:31.038Z,60.33
2019-01-12T20:26:58.430Z,60.36
2019-01-12T20:29:25.860Z,60.30
2019-01-12T20:32:16.775Z,60.21
2019-01-12T20:34:44.220Z,60.16
2019-01-12T20:40:15.016Z,59.34
2019-01-12T20:45:39.791Z,58.82
2019-01-12T20:48:19.688Z,59.12
2019-01-12T20:53:46.882Z,58.74
2019-01-12T20:56:20.184Z,58.76
2019-01-12T20:58:50.797Z,58.88
2019-01-12T21:01:30.211Z,58.97
2019-01-12T21:06:58.569Z,58.17
2019-01-12T21:09:30.295Z,58.32
2019-01-12T21:12:17.878Z,58.55
2019-01-12T21:14:45.508Z,58.74
2019-01-12T21:17:12.953Z,58.71
2019-01-12T21:19:47.753Z,58.60
2019-01-12T21:22:08.214Z,58.56
2019-01-12T21:24:35.718Z,58.42
2019-01-12T21:27:03.143Z,58.49
2019-01-12T21:29:35.119Z,58.56
2019-01-12T21:31:57.996Z,58.51
2019-01-12T21:34:25.413Z,58.58
2019-01-12T21:36:52.830Z,58.68
2019-01-12T21:39:20.255Z,58.71
2019-01-12T21:41:48.625Z,58.73
2019-01-12T21:44:16.113Z,58.69
2019-01-12T21:46:43.563Z,58.88
2019-01-12T21:49:11.042Z,58.80
2019-01-12T21:51:38.478Z,58.84
2019-01-12T21:54:05.889Z,58.96
2019-01-12T21:56:33.357Z,59.30
2019-01-12T21:59:00.771Z,59.25
2019-01-12T22:01:28.300Z,59.36
2019-01-12T22:03:55.713Z,59.44
2019-01-12T22:06:23.200Z,59.70
2019-01-12T22:08:50.628Z,60.08
2019-01-12T22:11:18.063Z,60.45
2019-01-12T22:13:45.513Z,60.98
2019-01-12T22:16:13.585Z,61.06
2019-01-12T22:18:41.012Z,61.15
2019-01-12T22:21:08.395Z,61.43
2019-01-12T22:23:35.799Z,61.96
2019-01-12T22:26:03.271Z,62.43
2019-01-12T22:28:30.726Z,62.73
2019-01-12T22:30:58.195Z,63.26
2019-01-12T22:33:25.620Z,63.36
2019-01-12T22:35:53.033Z,63.72
2019-01-12T22:38:20.431Z,63.63
2019-01-12T22:40:47.847Z,63.61
2019-01-12T22:43:15.246Z,63.64
2019-01-12T22:45:42.692Z,63.77
2019-01-12T22:48:10.137Z,64.05
2019-01-12T22:50:37.535Z,64.25
2019-01-12T22:53:05.130Z,64.21
2019-01-12T22:55:32.592Z,64.45
2019-01-12T22:57:59.984Z,64.75
2019-01-12T23:00:42.285Z,65.14
2019-01-12T23:03:09.736Z,65.19
2019-01-12T23:05:37.147Z,65.31
2019-01-12T23:08:04.606Z,65.37
2019-01-12T23:10:32.033Z,65.61
2019-01-12T23:12:59.468Z,65.75
2019-01-12T23:15:26.926Z,66.05
2019-01-12T23:17:54.384Z,66.10
2019-01-12T23:20:21.767Z,66.30
2019-01-12T23:22:49.186Z,66.77
2019-01-12T23:25:16.603Z,67.10
2019-01-12T23:27:43.995Z,67.08
2019-01-12T23:30:13.176Z,67.46
2019-01-12T23:32:40.663Z,67.76
2019-01-12T23:35:08.117Z,68.37
2019-01-12T23:37:35.547Z,68.47
2019-01-12T23:40:03.007Z,68.83
2019-01-12T23:42:30.484Z,69.26
2019-01-12T23:44:57.927Z,69.54
2019-01-12T23:47:25.335Z,69.62
2019-01-12T23:49:52.745Z,70.12
2019-01-12T23:52:20.179Z,70.26
2019-01-12T23:54:47.570Z,70.41
2019-01-12T23:57:15.065Z,70.76
2019-01-12T23:59:42.474Z,71.05
